YSC weather

Sherbrooke Airport
Sherbrooke, Quebec, Canada

Public forecast

Using degrees Celsius for public forecast. Weather courtesy of forecast.io.

Current aviation weather report (METAR) for Sherbrooke Airport

Retrieved 2020/07/15 10:38 UTC (18 minutes ago):

CYSC 151038Z AUTO 05006KT 9SM BKN024 OVC049 16/14 A3020 RMK SLP227

Aviation forecast (TAF) for Sherbrooke Airport

Forecast is more than 6 hours old.

Retrieved 2020-07-15 00:00 UTC (11 hours ago):

TAF CYSC 142338Z 1500/1503 04010KT P6SM SCT020 BKN100 FM150200 09006KT P6SM BKN040 RMK FCST BASED ON AUTO OBS NXT FCST WILL BE ISSUED AT 151045Z